Time;durP1;ratioP1;P1;durP2;ratioP2;P2;SDS_P1;SDS_P2;PMS_P1;PMS_P2;Temp;Humidity;BMP_temperature;BMP_pressure;BME280_temperature;BME280_humidity;BME280_pressure;Samples;Min_cycle;Max_cycle;Signal;HPM_P1;HPM_P2
2022/06/20 00:01:22;;;;;;;8.20;2.83;;;15.50;1.00;;;;;;5074453;28;20192;-68
2022/06/20 00:03:48;;;;;;;10.27;5.90;;;15.60;1.00;;;;;;5073801;28;20229;-67
2022/06/20 00:06:18;;;;;;;9.33;5.13;;;15.60;1.00;;;;;;5074277;28;20184;-67
2022/06/20 00:08:44;;;;;;;10.97;5.00;;;15.60;1.00;;;;;;5074459;28;20176;-67
2022/06/20 00:11:19;;;;;;;7.63;3.10;;;15.50;1.00;;;;;;5074201;28;20165;-67
2022/06/20 00:13:47;;;;;;;8.87;2.40;;;15.40;1.00;;;;;;5074377;28;20164;-67
2022/06/20 00:16:16;;;;;;;8.50;2.40;;;15.40;1.00;;;;;;5074328;28;20181;-67
2022/06/20 00:18:42;;;;;;;6.33;2.03;;;15.40;1.00;;;;;;5073797;28;20212;-67
2022/06/20 00:21:13;;;;;;;5.77;2.47;;;15.30;1.00;;;;;;5074004;28;20180;-67
2022/06/20 00:23:39;;;;;;;6.20;2.37;;;15.30;1.00;;;;;;5074148;28;20204;-67
2022/06/20 00:26:05;;;;;;;6.37;2.50;;;15.10;1.00;;;;;;5074197;28;20179;-67
2022/06/20 00:28:31;;;;;;;8.27;2.60;;;15.10;4.00;;;;;;5073992;28;20267;-67
2022/06/20 00:30:57;;;;;;;6.80;2.60;;;15.10;4.30;;;;;;5073969;28;20239;-67
2022/06/20 00:33:22;;;;;;;9.47;2.60;;;15.00;5.60;;;;;;5073404;28;20180;-67
2022/06/20 00:35:48;;;;;;;6.10;2.27;;;15.10;7.60;;;;;;5074119;28;20164;-67
2022/06/20 00:38:18;;;;;;;10.10;3.07;;;15.00;8.90;;;;;;5073804;28;20204;-67
2022/06/20 00:40:48;;;;;;;6.80;2.60;;;15.10;10.70;;;;;;5073825;28;20172;-67
2022/06/20 00:43:25;;;;;;;8.23;3.07;;;15.00;10.60;;;;;;5074079;28;20168;-67
2022/06/20 00:45:54;;;;;;;7.73;2.50;;;15.00;8.30;;;;;;5073624;28;20179;-68
2022/06/20 00:48:27;;;;;;;7.63;2.27;;;15.00;14.20;;;;;;5073425;28;20187;-67
2022/06/20 00:50:59;;;;;;;10.93;2.97;;;15.00;16.00;;;;;;5073508;28;20750;-67
2022/06/20 00:53:44;;;;;;;10.33;2.80;;;15.00;18.40;;;;;;5073787;28;20203;-67
2022/06/20 00:56:24;;;;;;;7.67;2.57;;;15.00;19.60;;;;;;5073518;28;20163;-67
2022/06/20 00:58:58;;;;;;;8.43;3.10;;;15.10;18.60;;;;;;5073558;28;20208;-67
2022/06/20 01:01:38;;;;;;;6.80;2.83;;;15.00;20.30;;;;;;5073474;28;20202;-67
2022/06/20 01:04:10;;;;;;;5.40;2.47;;;15.10;20.80;;;;;;5073021;28;20247;-67
2022/06/20 01:06:49;;;;;;;9.53;3.10;;;15.10;19.80;;;;;;5073449;28;20201;-67
2022/06/20 01:09:18;;;;;;;7.10;2.63;;;15.20;22.20;;;;;;5073469;28;20698;-67
2022/06/20 01:11:47;;;;;;;10.00;2.93;;;15.10;26.50;;;;;;5073413;28;20620;-67
2022/06/20 01:14:23;;;;;;;12.97;2.97;;;15.10;31.70;;;;;;5073209;28;20171;-67
2022/06/20 01:16:52;;;;;;;13.67;3.30;;;15.10;35.10;;;;;;5073042;28;20204;-67
2022/06/20 01:19:33;;;;;;;11.50;2.93;;;15.20;37.10;;;;;;5073334;28;20257;-67
2022/06/20 01:22:02;;;;;;;7.83;3.10;;;15.20;38.00;;;;;;5073393;28;20168;-67
2022/06/20 01:24:35;;;;;;;8.90;3.30;;;15.20;40.00;;;;;;5073343;28;20262;-67
2022/06/20 01:27:22;;;;;;;12.10;3.50;;;15.20;41.80;;;;;;5073428;28;20172;-67
2022/06/20 01:29:49;;;;;;;7.30;3.30;;;15.30;42.60;;;;;;5073262;28;20161;-67
2022/06/20 01:32:14;;;;;;;10.33;3.43;;;15.20;42.00;;;;;;5072739;28;20168;-67
2022/06/20 01:34:40;;;;;;;8.97;3.40;;;15.20;42.30;;;;;;5073231;28;20176;-67
2022/06/20 01:37:28;;;;;;;6.93;3.00;;;15.20;40.20;;;;;;5073078;28;20176;-67
2022/06/20 01:39:58;;;;;;;11.07;3.03;;;15.00;50.20;;;;;;5072963;28;20188;-67
2022/06/20 01:42:24;;;;;;;10.23;3.60;;;14.90;56.60;;;;;;5073217;28;21040;-67
2022/06/20 01:45:00;;;;;;;6.60;2.97;;;14.80;57.10;;;;;;5073111;28;20172;-67
2022/06/20 01:47:26;;;;;;;11.00;3.33;;;14.70;60.00;;;;;;5072702;28;20178;-67
2022/06/20 01:49:59;;;;;;;8.47;3.10;;;14.70;63.50;;;;;;5072918;28;20176;-68
2022/06/20 01:52:36;;;;;;;10.13;3.10;;;14.60;61.60;;;;;;5072890;28;20200;-66
2022/06/20 01:55:07;;;;;;;8.00;3.03;;;14.70;61.20;;;;;;5072978;28;20165;-68
2022/06/20 01:57:37;;;;;;;10.47;3.63;;;14.80;58.50;;;;;;5073034;28;20286;-68
2022/06/20 02:00:08;;;;;;;9.90;3.70;;;14.80;58.10;;;;;;5076250;28;20733;-67
2022/06/20 02:02:38;;;;;;;13.20;3.47;;;14.60;63.90;;;;;;5076581;28;20219;-66
2022/06/20 02:05:08;;;;;;;11.83;3.93;;;14.50;68.10;;;;;;5076569;28;20214;-67
2022/06/20 02:07:35;;;;;;;10.00;3.17;;;14.60;68.70;;;;;;5076843;28;20164;-67
2022/06/20 02:10:04;;;;;;;10.53;3.40;;;14.70;64.00;;;;;;5076688;28;20238;-67
2022/06/20 02:12:32;;;;;;;10.97;3.50;;;14.80;60.90;;;;;;5076608;28;20176;-67
2022/06/20 02:14:59;;;;;;;11.57;3.30;;;14.80;61.40;;;;;;5076160;28;20207;-67
2022/06/20 02:17:36;;;;;;;8.07;3.10;;;14.80;62.20;;;;;;5076554;28;20265;-67
2022/06/20 02:20:06;;;;;;;12.33;3.97;;;14.80;55.10;;;;;;5076628;28;20195;-67
2022/06/20 02:22:34;;;;;;;8.27;2.97;;;14.70;58.80;;;;;;5076416;28;20173;-67
2022/06/20 02:25:06;;;;;;;9.40;3.30;;;14.60;58.80;;;;;;5076399;28;20172;-66
2022/06/20 02:27:40;;;;;;;9.80;2.90;;;14.70;58.60;;;;;;5076276;28;20245;-68
2022/06/20 02:30:08;;;;;;;8.90;2.83;;;14.70;55.50;;;;;;5076065;28;20184;-66
2022/06/20 02:32:38;;;;;;;13.10;2.80;;;14.80;53.80;;;;;;5076099;28;20506;-67
2022/06/20 02:35:07;;;;;;;9.60;2.73;;;14.80;47.90;;;;;;5076338;28;20326;-67
2022/06/20 02:37:34;;;;;;;7.67;2.73;;;14.80;50.20;;;;;;5076117;28;20271;-67
2022/06/20 02:40:03;;;;;;;8.53;2.97;;;14.50;52.80;;;;;;5075919;28;20564;-66
2022/06/20 02:42:34;;;;;;;10.60;2.90;;;14.40;57.90;;;;;;5075684;28;20172;-66
2022/06/20 02:45:02;;;;;;;10.07;2.47;;;14.40;61.40;;;;;;5075635;28;20179;-66
2022/06/20 02:47:29;;;;;;;9.17;2.63;;;14.30;59.50;;;;;;5075866;28;20184;-67
2022/06/20 02:49:58;;;;;;;8.80;2.67;;;14.30;59.00;;;;;;5075768;28;20643;-67
2022/06/20 02:52:31;;;;;;;6.93;2.90;;;14.30;57.90;;;;;;5075789;28;20651;-67
2022/06/20 02:54:58;;;;;;;8.70;2.70;;;14.30;55.60;;;;;;5075696;28;20160;-67
2022/06/20 02:57:37;;;;;;;8.10;2.80;;;14.30;56.70;;;;;;5075959;28;20268;-67
2022/06/20 03:00:10;;;;;;;7.43;2.67;;;14.30;59.40;;;;;;5075284;28;20227;-66
2022/06/20 03:02:38;;;;;;;5.67;2.23;;;14.30;56.80;;;;;;5075596;28;20236;-67
2022/06/20 03:05:05;;;;;;;6.57;2.53;;;14.40;52.30;;;;;;5075692;28;20183;-67
2022/06/20 03:07:36;;;;;;;5.60;2.20;;;14.40;52.90;;;;;;5075496;28;20205;-66
2022/06/20 03:10:34;;;;;;;7.40;2.53;;;14.50;48.70;;;;;;5074545;28;20173;-66
2022/06/20 03:13:00;;;;;;;6.13;2.43;;;14.50;46.40;;;;;;5075324;28;20168;-66
2022/06/20 03:15:27;;;;;;;7.03;2.20;;;14.60;46.70;;;;;;5075636;28;20259;-67
2022/06/20 03:17:57;;;;;;;8.57;2.87;;;14.60;43.80;;;;;;5075400;28;20204;-67
2022/06/20 03:20:25;;;;;;;3.53;2.10;;;14.70;38.60;;;;;;5075527;28;20816;-67
2022/06/20 03:23:11;;;;;;;6.50;2.20;;;14.70;35.90;;;;;;5075194;28;20161;-66
2022/06/20 03:25:39;;;;;;;4.23;2.30;;;14.60;35.30;;;;;;5074955;28;20185;-67
2022/06/20 03:28:07;;;;;;;5.77;2.27;;;14.50;36.00;;;;;;5074815;28;20181;-68
2022/06/20 03:30:36;;;;;;;6.73;2.20;;;14.30;45.20;;;;;;5074971;28;20180;-67
2022/06/20 03:33:05;;;;;;;6.20;2.23;;;14.30;49.70;;;;;;5073949;28;20222;-67
2022/06/20 03:35:33;;;;;;;5.60;2.20;;;14.20;51.30;;;;;;5075066;28;20692;-67
2022/06/20 03:38:05;;;;;;;7.63;2.50;;;14.10;53.40;;;;;;5075204;28;20290;-67
2022/06/20 03:40:33;;;;;;;6.70;3.03;;;14.10;55.30;;;;;;5074817;28;20257;-67
2022/06/20 03:43:00;;;;;;;6.30;2.77;;;14.10;56.70;;;;;;5074546;28;20695;-67
2022/06/20 03:45:31;;;;;;;4.80;2.57;;;14.20;54.90;;;;;;5074654;28;20259;-67
2022/06/20 03:48:05;;;;;;;8.27;2.17;;;14.30;53.10;;;;;;5074892;28;20196;-67
2022/06/20 03:50:53;;;;;;;6.43;2.17;;;14.50;49.00;;;;;;5074630;28;20324;-67
2022/06/20 03:53:27;;;;;;;8.03;2.57;;;14.70;41.90;;;;;;5073972;28;20600;-67
2022/06/20 03:56:00;;;;;;;5.47;2.17;;;14.70;36.40;;;;;;5074303;28;20256;-67
2022/06/20 03:58:38;;;;;;;8.13;2.00;;;14.90;31.60;;;;;;5074587;28;20239;-67
2022/06/20 04:01:12;;;;;;;8.60;2.20;;;14.90;25.50;;;;;;5074485;28;20659;-67
2022/06/20 04:03:42;;;;;;;3.57;2.07;;;14.70;35.00;;;;;;5073991;28;20220;-67
2022/06/20 04:06:29;;;;;;;7.73;2.40;;;14.70;32.10;;;;;;5074241;28;20626;-67
2022/06/20 04:12:32;;;;;;;7.93;2.10;;;14.70;36.70;;;;;;5073838;28;20216;-67
2022/06/20 04:15:06;;;;;;;9.33;2.33;;;14.90;35.90;;;;;;5073788;28;20218;-66
2022/06/20 04:20:45;;;;;;;7.80;2.47;;;14.70;41.30;;;;;;5074348;28;20232;-67
2022/06/20 04:23:18;;;;;;;6.43;2.30;;;14.70;38.40;;;;;;5073869;28;20639;-67
2022/06/20 04:26:12;;;;;;;6.50;2.40;;;14.70;42.30;;;;;;5073704;28;20191;-67
2022/06/20 04:28:44;;;;;;;7.73;2.27;;;14.60;44.50;;;;;;5073725;28;20165;-67
2022/06/20 04:31:26;;;;;;;6.07;2.40;;;14.50;53.10;;;;;;5073825;28;20229;-67
2022/06/20 04:34:21;;;;;;;5.47;2.40;;;14.50;53.00;;;;;;5073303;28;20173;-67
2022/06/20 04:36:56;;;;;;;11.20;2.80;;;14.60;50.30;;;;;;5052422;28;20272;-67
2022/06/20 04:39:37;;;;;;;7.73;2.47;;;14.60;51.20;;;;;;5073363;28;20242;-67
2022/06/20 04:42:36;;;;;;;11.20;2.73;;;14.50;52.90;;;;;;5073189;28;20251;-67
2022/06/20 04:45:19;;;;;;;6.77;2.53;;;14.70;55.00;;;;;;5073809;28;20183;-67
2022/06/20 04:48:08;;;;;;;5.13;2.83;;;14.90;48.10;;;;;;5073369;28;20765;-67
2022/06/20 04:50:34;;;;;;;7.77;2.47;;;14.90;42.70;;;;;;5073311;28;20310;-67
2022/06/20 04:53:06;;;;;;;10.43;2.90;;;14.80;44.20;;;;;;5073243;28;20160;-67
2022/06/20 04:55:33;;;;;;;8.07;2.70;;;14.90;44.80;;;;;;5073231;28;20184;-67
2022/06/20 04:58:04;;;;;;;9.13;3.43;;;14.90;44.30;;;;;;5072527;28;20261;-68
2022/06/20 05:00:40;;;;;;;7.63;4.13;;;15.00;42.20;;;;;;5073409;28;20200;-68
2022/06/20 05:03:08;;;;;;;6.07;3.43;;;14.80;44.90;;;;;;5073202;28;20302;-67
2022/06/20 05:05:39;;;;;;;12.73;3.33;;;14.60;52.50;;;;;;5073069;28;20173;-67
2022/06/20 05:08:09;;;;;;;10.17;3.30;;;14.50;59.60;;;;;;5073248;28;20589;-66
2022/06/20 05:10:57;;;;;;;12.13;3.60;;;14.50;61.00;;;;;;5072665;28;20173;-67
2022/06/20 05:13:32;;;;;;;10.53;3.63;;;14.60;60.30;;;;;;5063260;28;20268;-67
2022/06/20 05:15:59;;;;;;;6.47;3.20;;;14.70;59.40;;;;;;5072396;28;20180;-67
2022/06/20 05:18:32;;;;;;;8.10;3.00;;;14.80;52.00;;;;;;5073065;28;20216;-67
2022/06/20 05:21:03;;;;;;;10.07;3.23;;;14.90;44.70;;;;;;5072877;28;20176;-67
2022/06/20 05:23:38;;;;;;;9.63;3.13;;;15.00;45.80;;;;;;5072718;28;20180;-68
2022/06/20 05:26:06;;;;;;;6.97;2.77;;;15.10;42.10;;;;;;5072056;28;20176;-67
2022/06/20 05:28:33;;;;;;;8.17;3.40;;;15.10;34.30;;;;;;5072806;28;20200;-67
2022/06/20 05:31:01;;;;;;;12.20;4.10;;;15.20;32.00;;;;;;5072935;28;20172;-67
2022/06/20 05:33:36;;;;;;;10.33;3.50;;;15.10;28.30;;;;;;5071356;28;20172;-67
2022/06/20 05:36:10;;;;;;;8.40;3.00;;;15.30;28.40;;;;;;5072998;28;20186;-67
2022/06/20 05:38:50;;;;;;;9.33;3.50;;;15.30;24.60;;;;;;5071786;28;20208;-67
2022/06/20 05:41:17;;;;;;;7.80;2.93;;;15.50;19.00;;;;;;5072334;28;20169;-67
2022/06/20 05:43:43;;;;;;;13.50;3.17;;;15.60;18.80;;;;;;5072216;28;20179;-67
2022/06/20 05:46:36;;;;;;;6.23;2.80;;;15.60;13.00;;;;;;5072007;28;20264;-67
2022/06/20 05:49:10;;;;;;;8.83;2.97;;;15.70;10.70;;;;;;5070384;28;20267;-67
2022/06/20 05:51:39;;;;;;;8.73;2.90;;;15.80;7.90;;;;;;5072361;28;20176;-67
2022/06/20 05:54:31;;;;;;;8.93;2.70;;;15.60;11.20;;;;;;5071999;28;20165;-67
2022/06/20 05:57:02;;;;;;;10.23;3.00;;;15.40;13.60;;;;;;5072707;28;20260;-67
2022/06/20 05:59:45;;;;;;;9.83;3.37;;;15.30;24.60;;;;;;5072412;28;20216;-67
2022/06/20 06:02:22;;;;;;;7.20;2.60;;;15.40;22.50;;;;;;5071919;28;20267;-68
2022/06/20 06:05:04;;;;;;;8.93;2.90;;;15.50;16.80;;;;;;5071454;28;20188;-67
2022/06/20 06:07:46;;;;;;;9.00;2.90;;;15.50;11.10;;;;;;5071948;28;20180;-68
2022/06/20 06:10:20;;;;;;;8.87;3.20;;;15.60;11.60;;;;;;5071572;28;20194;-67
2022/06/20 06:12:53;;;;;;;9.33;2.40;;;15.70;1.80;;;;;;5071412;28;20176;-67
2022/06/20 06:15:29;;;;;;;7.07;2.70;;;15.60;5.20;;;;;;5072271;28;20160;-68
2022/06/20 06:17:59;;;;;;;6.77;2.73;;;15.60;1.00;;;;;;5072253;28;20648;-67
2022/06/20 06:20:28;;;;;;;6.80;2.33;;;15.60;1.00;;;;;;5072058;28;20173;-66
2022/06/20 06:22:59;;;;;;;7.23;2.73;;;15.40;5.70;;;;;;5071339;28;20196;-67
2022/06/20 06:25:30;;;;;;;7.97;3.03;;;15.50;5.90;;;;;;5071538;28;20165;-67
2022/06/20 06:28:00;;;;;;;6.83;2.70;;;15.70;10.40;;;;;;5071404;28;20648;-68
2022/06/20 06:30:41;;;;;;;7.50;2.83;;;15.60;7.40;;;;;;5072030;28;20173;-67
2022/06/20 06:33:11;;;;;;;9.07;3.10;;;15.70;14.90;;;;;;5071517;28;20183;-67
2022/06/20 06:35:43;;;;;;;8.30;3.10;;;15.50;27.50;;;;;;5071947;28;20580;-68
2022/06/20 06:38:13;;;;;;;7.70;3.90;;;15.50;43.80;;;;;;5071224;28;20590;-68
2022/06/20 06:40:49;;;;;;;7.30;2.87;;;15.40;51.80;;;;;;5080725;28;20179;-68
2022/06/20 06:43:24;;;;;;;8.40;2.93;;;15.50;52.20;;;;;;5084905;28;20199;-67
2022/06/20 06:45:53;;;;;;;6.97;2.93;;;15.40;44.90;;;;;;5083974;28;20215;-66
2022/06/20 06:48:39;;;;;;;8.47;3.27;;;15.20;37.20;;;;;;5092143;28;20199;-66
2022/06/20 06:51:12;;;;;;;5.17;2.43;;;15.30;56.10;;;;;;5095008;28;20221;-66
2022/06/20 06:53:40;;;;;;;11.60;3.10;;;15.50;44.20;;;;;;5094757;28;20167;-66
2022/06/20 06:56:30;;;;;;;6.97;3.10;;;15.60;30.00;;;;;;5088830;28;20569;-67
2022/06/20 06:59:04;;;;;;;3.63;2.50;;;15.70;25.60;;;;;;5082956;28;20205;-68
2022/06/20 07:01:45;;;;;;;5.73;2.63;;;15.80;3.70;;;;;;5094653;28;20171;-67
2022/06/20 07:04:34;;;;;;;9.60;2.80;;;16.10;4.50;;;;;;5091663;28;20211;-68
2022/06/20 07:07:20;;;;;;;6.67;2.60;;;16.20;1.00;;;;;;5094202;28;20658;-68
2022/06/20 07:09:51;;;;;;;9.10;2.80;;;16.40;1.00;;;;;;5095509;28;20203;-69
2022/06/20 07:12:46;;;;;;;7.53;2.67;;;16.50;1.00;;;;;;5095168;28;20175;-67
2022/06/20 07:15:15;;;;;;;10.07;3.10;;;16.60;1.00;;;;;;5056825;28;20180;-67
2022/06/20 07:17:47;;;;;;;5.43;2.83;;;16.90;1.00;;;;;;5094943;28;20195;-68
2022/06/20 07:20:13;;;;;;;8.17;2.70;;;17.10;1.00;;;;;;5094816;28;20183;-67
2022/06/20 07:22:42;;;;;;;6.57;2.37;;;17.50;1.00;;;;;;5092435;28;20164;-68
2022/06/20 07:25:34;;;;;;;7.20;2.40;;;18.10;1.00;;;;;;5085370;28;20196;-68
2022/06/20 07:28:18;;;;;;;4.67;2.20;;;19.30;5.70;;;;;;5094644;28;20167;-68
2022/06/20 07:30:50;;;;;;;8.38;2.17;;;19.50;99.90;;;;;;5094413;28;20250;-67
2022/06/20 07:33:23;;;;;;;4.70;1.90;;;19.70;1.00;;;;;;5093414;28;20172;-67
2022/06/20 07:35:52;;;;;;;14.00;3.20;;;19.70;99.90;;;;;;5074884;28;20195;-68
2022/06/20 07:38:43;;;;;;;3.30;1.80;;;19.40;99.90;;;;;;5078948;28;20196;-68
2022/06/20 07:41:20;;;;;;;11.60;2.50;;;19.20;99.90;;;;;;5079594;28;20165;-68
2022/06/20 07:43:58;;;;;;;7.93;2.40;;;19.20;1.00;;;;;;5083583;28;20167;-68
2022/06/20 07:46:33;;;;;;;5.70;2.20;;;19.20;1.00;;;;;;5094999;28;20195;-68
2022/06/20 07:49:06;;;;;;;4.18;1.90;;;19.30;1.00;;;;;;5094379;28;20167;-68
2022/06/20 07:51:39;;;;;;;5.93;2.00;;;19.10;99.90;;;;;;5092959;28;20179;-68
2022/06/20 07:54:44;;;;;;;5.18;2.10;;;18.50;1.00;;;;;;5093631;28;20635;-67
2022/06/20 07:57:16;;;;;;;6.88;2.15;;;18.40;99.90;;;;;;5089700;28;20233;-68
2022/06/20 07:59:45;;;;;;;5.53;1.85;;;18.90;1.00;;;;;;5094228;28;20204;-69
2022/06/20 08:02:16;;;;;;;5.57;2.30;;;19.50;1.00;;;;;;5093898;28;20160;-68
2022/06/20 08:04:45;;;;;;;4.05;1.90;;;20.50;99.90;;;;;;5093253;28;20198;-68
2022/06/20 08:07:41;;;;;;;5.43;2.15;;;21.10;9.20;;;;;;5094087;28;20168;-68
2022/06/20 08:10:27;;;;;;;4.10;1.98;;;21.50;1.00;;;;;;5093610;28;20191;-67
2022/06/20 08:12:57;;;;;;;5.60;2.05;;;20.10;99.90;;;;;;5092459;28;20180;-69
2022/06/20 08:15:30;;;;;;;4.78;1.83;;;21.20;1.00;;;;;;5093332;28;20635;-68
2022/06/20 08:17:55;;;;;;;5.38;2.10;;;21.90;99.90;;;;;;5092941;28;20223;-69
2022/06/20 08:20:24;;;;;;;4.65;2.30;;;22.90;1.00;;;;;;5093547;28;20628;-69
2022/06/20 08:22:55;;;;;;;2.83;1.90;;;23.00;1.00;;;;;;5092090;28;20195;-69
2022/06/20 08:25:25;;;;;;;6.03;2.17;;;21.80;99.90;;;;;;5092754;28;20168;-70
2022/06/20 08:28:00;;;;;;;5.60;2.70;;;22.30;99.90;;;;;;5092447;28;20641;-69
2022/06/20 08:30:47;;;;;;;6.38;2.38;;;22.80;1.00;;;;;;5092670;28;20173;-68
2022/06/20 08:33:20;;;;;;;7.68;2.45;;;22.10;2.10;;;;;;5093073;28;20229;-69
2022/06/20 08:35:59;;;;;;;4.63;2.05;;;22.30;1.00;;;;;;5092859;28;20622;-70
2022/06/20 08:38:42;;;;;;;11.70;4.38;;;22.30;1.00;;;;;;5092721;28;20675;-69
2022/06/20 08:41:38;;;;;;;9.68;3.45;;;22.00;1.00;;;;;;5092489;28;20178;-69
2022/06/20 08:44:30;;;;;;;5.60;2.58;;;22.50;58.30;;;;;;5092894;28;20174;-71
2022/06/20 08:47:23;;;;;;;4.22;2.22;;;25.00;99.90;;;;;;5091439;28;20169;-71
2022/06/20 08:50:07;;;;;;;3.72;2.10;;;26.00;99.90;;;;;;5086603;28;20647;-70
2022/06/20 08:52:41;;;;;;;6.30;2.78;;;25.40;99.90;;;;;;5075359;28;20176;-70
2022/06/20 08:55:16;;;;;;;4.60;2.42;;;26.30;99.90;;;;;;5072113;28;20165;-69
2022/06/20 08:58:18;;;;;;;8.93;2.55;;;26.20;99.90;;;;;;5071930;28;20226;-69
2022/06/20 09:00:50;;;;;;;6.50;2.80;;;25.40;99.90;;;;;;5071507;28;20681;-68
2022/06/20 09:03:45;;;;;;;3.50;2.28;;;24.40;99.90;;;;;;5071983;28;20228;-67
2022/06/20 09:06:40;;;;;;;5.72;2.20;;;24.10;99.90;;;;;;5072323;28;20205;-68
2022/06/20 09:09:23;;;;;;;3.03;2.10;;;23.00;99.90;;;;;;5071253;28;20276;-70
2022/06/20 09:12:07;;;;;;;4.40;2.47;;;23.00;1.00;;;;;;5072133;28;20175;-69
2022/06/20 09:15:02;;;;;;;5.68;1.90;;;23.50;1.00;;;;;;5072235;28;20176;-69
2022/06/20 09:18:02;;;;;;;3.35;1.75;;;23.80;99.90;;;;;;5072070;28;20168;-68
2022/06/20 09:20:41;;;;;;;3.38;2.17;;;23.00;99.90;;;;;;5071657;28;20192;-68
2022/06/20 09:23:32;;;;;;;6.80;2.58;;;23.00;1.00;;;;;;5072209;28;20196;-68
2022/06/20 09:26:05;;;;;;;6.85;2.40;;;22.10;1.00;;;;;;5084449;28;20526;-68
2022/06/20 09:28:49;;;;;;;5.70;2.67;;;21.80;99.90;;;;;;5081179;28;20180;-68
2022/06/20 09:31:17;;;;;;;7.22;2.22;;;22.20;1.00;;;;;;5084640;28;20183;-68
2022/06/20 09:33:46;;;;;;;5.63;2.60;;;22.70;1.00;;;;;;5074008;28;20165;-68
2022/06/20 09:36:35;;;;;;;5.82;2.45;;;23.30;1.00;;;;;;5092875;28;20176;-69
2022/06/20 09:39:31;;;;;;;6.22;2.83;;;23.80;99.90;;;;;;5076765;28;20754;-68
2022/06/20 09:42:21;;;;;;;6.20;2.53;;;24.00;99.90;;;;;;5085303;28;20335;-68
2022/06/20 09:45:09;;;;;;;3.28;2.00;;;24.10;99.90;;;;;;5092378;28;20176;-68
2022/06/20 09:47:56;;;;;;;6.50;1.95;;;24.20;99.90;;;;;;5092336;28;20171;-68
2022/06/20 09:50:46;;;;;;;3.40;1.90;;;24.80;99.90;;;;;;5078546;28;20387;-69
2022/06/20 09:53:40;;;;;;;3.10;2.00;;;25.50;99.90;;;;;;5072136;28;20191;-69
2022/06/20 09:56:15;;;;;;;3.20;1.92;;;26.40;99.90;;;;;;5072214;28;20230;-71
2022/06/20 09:59:17;;;;;;;3.33;1.70;;;27.60;99.90;;;;;;5071436;28;20210;-70
2022/06/20 10:01:48;;;;;;;3.88;1.83;;;27.80;99.90;;;;;;5072087;28;20183;-70
2022/06/20 10:04:57;;;;;;;4.32;1.77;;;26.40;99.90;;;;;;5070399;28;20278;-69
2022/06/20 10:07:37;;;;;;;2.75;1.63;;;26.50;99.90;;;;;;5071554;28;20173;-69
2022/06/20 10:10:15;;;;;;;4.57;2.55;;;25.70;99.90;;;;;;5072381;28;20187;-70
2022/06/20 10:13:10;;;;;;;4.53;2.40;;;26.40;99.90;;;;;;5072560;28;20168;-70
2022/06/20 10:16:06;;;;;;;4.90;2.65;;;27.70;99.90;;;;;;5072350;28;20177;-71
2022/06/20 10:18:43;;;;;;;4.60;2.53;;;28.90;99.90;;;;;;5072188;28;20698;-70
2022/06/20 10:21:47;;;;;;;4.60;2.40;;;29.20;99.90;;;;;;5076033;28;20203;-69
2022/06/20 10:24:48;;;;;;;3.33;2.17;;;28.60;99.90;;;;;;5074906;28;20184;-70
2022/06/20 10:27:38;;;;;;;4.82;3.08;;;27.90;99.90;;;;;;5095989;28;20240;-70
2022/06/20 10:30:39;;;;;;;4.75;2.75;;;27.50;99.90;;;;;;5095572;28;20604;-71
2022/06/20 10:33:19;;;;;;;5.22;2.70;;;27.70;99.90;;;;;;5023402;28;20295;-71
2022/06/20 10:35:53;;;;;;;3.67;2.42;;;27.60;99.90;;;;;;5095958;28;20168;-70
2022/06/20 10:38:24;;;;;;;2.70;2.30;;;26.00;99.90;;;;;;5095490;28;20218;-70
2022/06/20 10:41:02;;;;;;;5.60;2.17;;;25.90;99.90;;;;;;5096322;28;20172;-70
2022/06/20 10:43:51;;;;;;;2.40;2.22;;;26.80;99.90;;;;;;5095833;28;20159;-70
2022/06/20 10:46:26;;;;;;;5.65;2.30;;;25.70;99.90;;;;;;5086924;28;20181;-70
2022/06/20 10:49:02;;;;;;;4.20;2.47;;;25.20;99.90;;;;;;5087967;28;20173;-69
2022/06/20 10:52:03;;;;;;;3.30;1.95;;;25.10;99.90;;;;;;5095394;28;20250;-69
2022/06/20 10:54:55;;;;;;;2.97;2.20;;;24.90;99.90;;;;;;5053926;28;20184;-69
2022/06/20 10:58:02;;;;;;;3.95;2.25;;;24.60;99.90;;;;;;5064239;28;20251;-70
2022/06/20 11:00:33;;;;;;;5.32;3.00;;;25.70;99.90;;;;;;5094986;28;20223;-71
2022/06/20 11:03:29;;;;;;;6.18;3.10;;;27.10;99.90;;;;;;5094776;28;20223;-71
2022/06/20 11:06:23;;;;;;;6.22;2.72;;;28.00;99.90;;;;;;5095474;28;20623;-70
2022/06/20 11:08:51;;;;;;;5.68;3.10;;;27.40;99.90;;;;;;5092269;28;20164;-70
2022/06/20 11:11:17;;;;;;;4.60;2.67;;;27.80;99.90;;;;;;5094828;28;20164;-71
2022/06/20 11:13:59;;;;;;;4.93;2.67;;;28.10;99.90;;;;;;5094904;28;20624;-70
2022/06/20 11:16:48;;;;;;;4.35;2.88;;;29.10;99.90;;;;;;5095613;28;20167;-70
2022/06/20 11:19:32;;;;;;;4.50;2.70;;;29.50;99.90;;;;;;5095205;28;20675;-70
2022/06/20 11:22:01;;;;;;;7.07;2.92;;;29.80;99.90;;;;;;5095020;28;20171;-70
2022/06/20 11:25:02;;;;;;;3.50;2.30;;;29.40;99.90;;;;;;5094763;28;20221;-69
2022/06/20 11:28:10;;;;;;;5.70;2.22;;;29.10;99.90;;;;;;5094846;28;20167;-69
2022/06/20 11:30:48;;;;;;;5.15;2.88;;;27.70;99.90;;;;;;5094311;28;20242;-69
2022/06/20 11:34:01;;;;;;;7.60;3.28;;;27.50;99.90;;;;;;5094962;28;20172;-69
2022/06/20 11:37:03;;;;;;;4.53;2.97;;;27.10;99.90;;;;;;5093811;28;20172;-70
2022/06/20 11:39:53;;;;;;;4.80;3.50;;;26.70;99.90;;;;;;5094602;28;20218;-69
2022/06/20 11:42:28;;;;;;;5.22;3.55;;;26.80;99.90;;;;;;5094915;28;20160;-69
2022/06/20 11:45:07;;;;;;;4.45;3.08;;;27.20;99.90;;;;;;5091429;28;20160;-68
2022/06/20 11:47:52;;;;;;;4.35;3.47;;;27.20;99.90;;;;;;5094886;28;20217;-69
2022/06/20 11:50:28;;;;;;;5.85;3.30;;;27.30;99.90;;;;;;5094226;28;20163;-69
2022/06/20 11:53:14;;;;;;;5.38;3.28;;;27.20;99.90;;;;;;5094573;28;20233;-69
2022/06/20 11:55:58;;;;;;;4.13;3.40;;;26.80;99.90;;;;;;5094104;28;20167;-69
2022/06/20 11:58:59;;;;;;;5.10;3.17;;;26.00;99.90;;;;;;5094149;28;20195;-69
2022/06/20 12:01:36;;;;;;;5.32;3.20;;;25.40;99.90;;;;;;5062524;28;20277;-69
2022/06/20 12:04:37;;;;;;;5.05;3.05;;;25.50;99.90;;;;;;5094058;28;20222;-69
2022/06/20 12:07:10;;;;;;;5.97;3.40;;;24.90;99.90;;;;;;5087119;28;20188;-69
2022/06/20 12:09:48;;;;;;;6.43;3.08;;;24.70;99.90;;;;;;5094195;28;20666;-69
2022/06/20 12:12:31;;;;;;;4.68;3.10;;;24.70;99.90;;;;;;5084463;28;20177;-69
2022/06/20 12:15:21;;;;;;;4.22;3.60;;;24.30;99.90;;;;;;5073544;28;20168;-68
2022/06/20 12:18:14;;;;;;;6.63;2.83;;;24.20;99.90;;;;;;5082928;28;20200;-68
2022/06/20 12:23:45;;;;;;;5.53;3.13;;;24.40;99.90;;;;;;5077368;28;20637;-69
2022/06/20 12:26:15;;;;;;;5.50;3.50;;;24.50;99.90;;;;;;5073723;28;20188;-68
2022/06/20 12:28:47;;;;;;;4.78;3.65;;;24.60;99.90;;;;;;5073836;28;20222;-68
2022/06/20 12:31:22;;;;;;;3.90;2.95;;;24.70;99.90;;;;;;5081041;28;20169;-68
2022/06/20 12:34:13;;;;;;;5.70;3.10;;;24.80;99.90;;;;;;5080832;28;20172;-68
2022/06/20 12:36:50;;;;;;;4.35;3.03;;;24.90;99.90;;;;;;5068914;28;20192;-68
2022/06/20 12:39:31;;;;;;;4.45;3.20;;;24.90;99.90;;;;;;5075653;28;20234;-67
2022/06/20 12:42:23;;;;;;;3.53;2.72;;;24.40;99.90;;;;;;5073149;28;20183;-68
2022/06/20 12:45:16;;;;;;;2.92;2.72;;;23.60;99.90;;;;;;5073213;28;20181;-67
2022/06/20 12:48:12;;;;;;;4.55;2.90;;;22.80;99.90;;;;;;5072281;28;20257;-68
2022/06/20 12:51:02;;;;;;;5.22;3.10;;;22.90;99.90;;;;;;5073119;28;20586;-68
2022/06/20 12:53:31;;;;;;;5.95;3.30;;;23.10;99.90;;;;;;5072591;28;20271;-67
2022/06/20 12:56:19;;;;;;;8.23;3.92;;;23.50;99.90;;;;;;5073148;28;20600;-68
2022/06/20 12:59:01;;;;;;;5.40;3.85;;;24.10;99.90;;;;;;5072945;28;20260;-69
2022/06/20 13:01:35;;;;;;;6.70;3.47;;;24.40;99.90;;;;;;5075813;28;20218;-68
2022/06/20 13:04:18;;;;;;;5.47;3.28;;;24.70;99.90;;;;;;5084045;28;20211;-69
2022/06/20 13:06:50;;;;;;;8.73;3.50;;;23.90;99.90;;;;;;5085689;28;20213;-68
2022/06/20 13:09:54;;;;;;;8.65;3.70;;;22.80;99.90;;;;;;5090777;28;20233;-67
2022/06/20 13:12:37;;;;;;;6.15;3.63;;;22.70;99.90;;;;;;5092747;28;20539;-68
2022/06/20 13:15:17;;;;;;;8.38;3.70;;;23.30;99.90;;;;;;5093185;28;20171;-69
2022/06/20 13:18:20;;;;;;;7.25;3.50;;;23.80;99.90;;;;;;5089654;28;20642;-68
2022/06/20 13:20:56;;;;;;;6.55;3.70;;;24.10;99.90;;;;;;5092841;28;20183;-69
2022/06/20 13:23:28;;;;;;;7.60;3.55;;;24.30;99.90;;;;;;5092204;28;20155;-70
2022/06/20 13:26:11;;;;;;;6.30;3.65;;;24.40;99.90;;;;;;5093131;28;20176;-70
2022/06/20 13:28:50;;;;;;;5.82;3.15;;;23.90;99.90;;;;;;5092657;28;20167;-69
2022/06/20 13:31:20;;;;;;;5.10;3.35;;;23.00;99.90;;;;;;5093018;28;20635;-69
2022/06/20 13:34:20;;;;;;;6.97;3.72;;;23.00;99.90;;;;;;5092902;28;20236;-69
2022/06/20 13:36:49;;;;;;;6.82;3.50;;;22.90;99.90;;;;;;5092325;28;20619;-68
2022/06/20 13:39:56;;;;;;;6.68;3.40;;;22.40;99.90;;;;;;5092886;28;20249;-69
2022/06/20 13:42:37;;;;;;;5.10;3.50;;;21.90;99.90;;;;;;5010110;28;20225;-69
2022/06/20 13:46:04;;;;;;;6.28;3.65;;;22.30;99.90;;;;;;5085176;28;20263;-69
2022/06/20 13:48:39;;;;;;;6.45;4.07;;;22.40;99.90;;;;;;4988148;28;20384;-69
2022/06/20 13:51:26;;;;;;;7.22;3.47;;;22.60;99.90;;;;;;4993669;28;20642;-69
2022/06/20 13:54:05;;;;;;;8.07;3.58;;;22.50;99.90;;;;;;4990854;28;20270;-68